Terminal Aerodrome Forecast
Issued by NWS

Home | Current Version | Previous Version | Text Only | Print | Product List | Glossary On
Versions: 1 2 3 4 5 6 7 8 9 10 11 12 13 14
000
FTUS44 KEPZ 050500
TAFDMN
TAF
KDMN 050539Z 0506/0606 24006KT P6SM FEW100 FEW250
     FM051500 26014G20KT P6SM FEW100 SCT250
     FM052100 26017G29KT P6SM SCT120 SCT250
     FM060300 28012KT P6SM FEW250=

USA.gov is the U.S. government's official web portal to all federal, state and local government web resources and services.